CSS3691 ZHCC-ZHEC
Flight info
| Callsign | CSS3691 |
|---|---|
| Flight time | N/A |
| Altitude | 36100 |
| Route | DUD9W DUDBI W37 ENLAB ENLAB9 |
| Aircraft | B763/H-SDE3FGHIM3RWXY/LB1 |
Departure
| Time | 2026-04-20 14:03 |
|---|---|
| Airport | Zhengzhou Xinzheng International Airport (ZHCC) |
Arrival
| Time | N/A |
|---|---|
| Airport | Ezhou Huahu International Airport (ZHEC) |
| Time | Latitude | Longitude | Altitude | Speed | Heading |
|---|---|---|---|---|---|
| 2026-04-20 13:45 | 34.52848 | 113.82729 | 508 ft | 0 kts | 23° |
| 2026-04-20 13:58 | 34.52835 | 113.82722 | 508 ft | 1 kts | 23° |
| 2026-04-20 13:59 | 34.52826 | 113.82718 | 507 ft | 2 kts | 18° |
| 2026-04-20 13:59 | 34.52811 | 113.82715 | 507 ft | 2 kts | 358° |
| 2026-04-20 13:59 | 34.52797 | 113.82717 | 507 ft | 2 kts | 342° |
| 2026-04-20 13:59 | 34.52784 | 113.82725 | 507 ft | 2 kts | 326° |
| 2026-04-20 14:00 | 34.52772 | 113.82736 | 507 ft | 2 kts | 310° |
| 2026-04-20 14:00 | 34.52764 | 113.82751 | 507 ft | 1 kts | 295° |
| 2026-04-20 14:00 | 34.52763 | 113.82755 | 507 ft | 0 kts | 292° |
| 2026-04-20 14:01 | 34.52764 | 113.82752 | 507 ft | 2 kts | 292° |
| 2026-04-20 14:01 | 34.52783 | 113.82695 | 506 ft | 12 kts | 292° |
| 2026-04-20 14:01 | 34.52812 | 113.82591 | 507 ft | 12 kts | 269° |
| 2026-04-20 14:02 | 34.52744 | 113.82518 | 505 ft | 16 kts | 201° |
| 2026-04-20 14:02 | 34.52623 | 113.82468 | 503 ft | 20 kts | 202° |
| 2026-04-20 14:02 | 34.52498 | 113.82449 | 503 ft | 17 kts | 115° |
| 2026-04-20 14:02 | 34.52490 | 113.82481 | 503 ft | 6 kts | 110° |
| 2026-04-20 14:03 | 34.52423 | 113.82683 | 502 ft | 62 kts | 112° |
| 2026-04-20 14:03 | 34.52160 | 113.83463 | 500 ft | 138 kts | 112° |
| 2026-04-20 14:03 | 34.51743 | 113.84732 | 792 ft | 179 kts | 110° |
| 2026-04-20 14:03 | 34.51249 | 113.86107 | 1750 ft | 184 kts | 124° |
| 2026-04-20 14:04 | 34.50303 | 113.87286 | 2238 ft | 208 kts | 137° |
| 2026-04-20 14:04 | 34.49158 | 113.88593 | 2626 ft | 242 kts | 135° |
| 2026-04-20 14:04 | 34.47912 | 113.90067 | 3365 ft | 263 kts | 135° |
| 2026-04-20 14:04 | 34.46590 | 113.91633 | 4478 ft | 269 kts | 134° |
| 2026-04-20 14:05 | 34.45279 | 113.93197 | 5617 ft | 273 kts | 134° |
| 2026-04-20 14:05 | 34.43915 | 113.94833 | 6732 ft | 278 kts | 133° |
| 2026-04-20 14:05 | 34.42541 | 113.96486 | 7819 ft | 283 kts | 133° |
| 2026-04-20 14:05 | 34.41143 | 113.98156 | 8851 ft | 288 kts | 135° |
| 2026-04-20 14:06 | 34.39654 | 113.99798 | 9725 ft | 297 kts | 137° |
| 2026-04-20 14:06 | 34.38061 | 114.01544 | 9728 ft | 310 kts | 137° |
| 2026-04-20 14:06 | 34.36492 | 114.03265 | 9674 ft | 297 kts | 137° |
| 2026-04-20 14:06 | 34.34987 | 114.04915 | 9669 ft | 290 kts | 137° |
| 2026-04-20 14:07 | 34.33487 | 114.06557 | 9677 ft | 288 kts | 137° |
| 2026-04-20 14:07 | 34.31889 | 114.08013 | 9677 ft | 287 kts | 152° |
| 2026-04-20 14:07 | 34.30099 | 114.09075 | 9682 ft | 288 kts | 154° |
| 2026-04-20 14:07 | 34.28287 | 114.10156 | 9673 ft | 289 kts | 154° |
| 2026-04-20 14:08 | 34.26481 | 114.11219 | 9671 ft | 288 kts | 154° |
| 2026-04-20 14:08 | 34.24669 | 114.12278 | 9672 ft | 288 kts | 154° |
| 2026-04-20 14:08 | 34.22839 | 114.13338 | 9820 ft | 293 kts | 154° |
| 2026-04-20 14:08 | 34.20979 | 114.14412 | 10527 ft | 303 kts | 154° |
| 2026-04-20 14:09 | 34.18967 | 114.15573 | 10903 ft | 335 kts | 154° |
| 2026-04-20 14:09 | 34.16773 | 114.16836 | 11283 ft | 367 kts | 154° |
| 2026-04-20 14:09 | 34.14398 | 114.18204 | 12165 ft | 382 kts | 154° |
| 2026-04-20 14:09 | 34.11972 | 114.19599 | 13212 ft | 391 kts | 154° |
| 2026-04-20 14:10 | 34.09498 | 114.21022 | 14178 ft | 401 kts | 155° |
| 2026-04-20 14:10 | 34.06965 | 114.22478 | 15178 ft | 408 kts | 155° |
| 2026-04-20 14:10 | 34.04368 | 114.23972 | 16184 ft | 415 kts | 156° |
| 2026-04-20 14:10 | 34.01740 | 114.25478 | 17150 ft | 420 kts | 156° |
| 2026-04-20 14:11 | 33.99106 | 114.26987 | 18052 ft | 425 kts | 156° |
| 2026-04-20 14:11 | 33.96406 | 114.28533 | 18882 ft | 432 kts | 157° |
| 2026-04-20 14:11 | 33.93729 | 114.30066 | 19633 ft | 439 kts | 157° |
| 2026-04-20 14:11 | 33.90942 | 114.31660 | 20460 ft | 444 kts | 157° |
| 2026-04-20 14:12 | 33.88153 | 114.33255 | 21153 ft | 451 kts | 158° |
| 2026-04-20 14:12 | 33.85294 | 114.34888 | 21859 ft | 457 kts | 158° |
| 2026-04-20 14:12 | 33.82411 | 114.36534 | 22572 ft | 462 kts | 158° |
| 2026-04-20 14:12 | 33.79522 | 114.38182 | 23180 ft | 468 kts | 158° |
| 2026-04-20 14:13 | 33.76565 | 114.39867 | 23857 ft | 473 kts | 158° |
| 2026-04-20 14:13 | 33.73573 | 114.41573 | 24511 ft | 478 kts | 158° |
| 2026-04-20 14:13 | 33.70558 | 114.43286 | 25119 ft | 484 kts | 159° |
| 2026-04-20 14:13 | 33.67508 | 114.45023 | 25719 ft | 490 kts | 159° |
| 2026-04-20 14:14 | 33.64395 | 114.46789 | 25771 ft | 500 kts | 159° |
| 2026-04-20 14:14 | 33.61221 | 114.48588 | 25771 ft | 512 kts | 159° |
| 2026-04-20 14:14 | 33.57964 | 114.50437 | 25764 ft | 517 kts | 159° |
| 2026-04-20 14:14 | 33.54689 | 114.52296 | 25763 ft | 516 kts | 159° |
| 2026-04-20 14:15 | 33.51480 | 114.54115 | 25765 ft | 515 kts | 159° |
| 2026-04-20 14:15 | 33.48227 | 114.55956 | 25766 ft | 514 kts | 158° |
| 2026-04-20 14:15 | 33.45012 | 114.57774 | 25764 ft | 515 kts | 159° |
| 2026-04-20 14:15 | 33.41762 | 114.59614 | 26250 ft | 510 kts | 159° |
| 2026-04-20 14:16 | 33.38589 | 114.61410 | 27310 ft | 502 kts | 159° |
| 2026-04-20 14:16 | 33.35436 | 114.63180 | 27778 ft | 503 kts | 159° |
| 2026-04-20 14:16 | 33.32216 | 114.64999 | 27768 ft | 512 kts | 160° |
| 2026-04-20 14:16 | 33.28960 | 114.66839 | 27746 ft | 515 kts | 160° |
| 2026-04-20 14:17 | 33.25690 | 114.68638 | 27744 ft | 510 kts | 162° |
| 2026-04-20 14:17 | 33.22333 | 114.69991 | 27756 ft | 500 kts | 172° |
| 2026-04-20 14:17 | 33.18955 | 114.70700 | 27760 ft | 493 kts | 180° |
| 2026-04-20 14:17 | 33.15502 | 114.70799 | 27751 ft | 487 kts | 188° |
| 2026-04-20 14:18 | 33.12296 | 114.70581 | 27756 ft | 487 kts | 189° |
| 2026-04-20 14:18 | 33.08923 | 114.70328 | 27751 ft | 487 kts | 190° |
| 2026-04-20 14:18 | 33.05561 | 114.70026 | 27747 ft | 486 kts | 190° |
| 2026-04-20 14:18 | 33.02214 | 114.69712 | 27752 ft | 485 kts | 190° |
| 2026-04-20 14:19 | 32.98869 | 114.69398 | 27750 ft | 486 kts | 190° |
| 2026-04-20 14:19 | 32.95478 | 114.69072 | 27743 ft | 486 kts | 190° |
| 2026-04-20 14:19 | 32.92129 | 114.68751 | 27742 ft | 484 kts | 191° |
| 2026-04-20 14:19 | 32.88762 | 114.68420 | 27744 ft | 484 kts | 190° |
| 2026-04-20 14:20 | 32.85414 | 114.68102 | 27741 ft | 484 kts | 190° |
| 2026-04-20 14:20 | 32.82048 | 114.67785 | 27743 ft | 485 kts | 190° |
| 2026-04-20 14:20 | 32.78677 | 114.67467 | 27740 ft | 485 kts | 190° |
| 2026-04-20 14:20 | 32.75339 | 114.67152 | 27735 ft | 485 kts | 190° |
| 2026-04-20 14:21 | 32.71970 | 114.66834 | 27736 ft | 484 kts | 190° |
| 2026-04-20 14:21 | 32.69736 | 114.66625 | 27733 ft | 483 kts | 190° |